Humberston, United Kingdom
Current Conditions -  °F | °C
As of 5:50 PM on Wednesday 28 Jan 2015 (Local Time) from EGXS Reporting Station
Few Clouds Few Clouds  
Wind Chill: 25°   Ceiling: Unl
Heat Index: 36°   Visibility: 6mi
Dew Point: 30°   Wind: 17mph
Humidity: 81%   Direction: 240°WSW
Pressure: 29.38"   Gusts: 30mph
Location:  53.53°N, 0.02°W
Report Text: EGXS 281750Z AUTO 24015G26KT 9999 // FEW150/// 02/M01 Q0995
Loading
Personal Weather Stations






























Interactive Weather Map New forecast layout! Learn more

10-Day Weather Forecast

Advertisements
Track Severe Weather on mobile